Cooperstown, North Dakota
Current Conditions -  °F | °C
As of 6:35 AM on Thursday 29 Jan 2015 (Local Time) from KBAC Reporting Station
Unknown Precip Unknown Precip  
Wind Chill: -12°   Ceiling: 1400
Heat Index: -5°   Visibility: 10mi
Dew Point: -5°   Wind: 14mph
Humidity: 100%   Direction: 350°N
Pressure: 30.31"   Gusts: 24mph
Location:  47.44°N, 98.12°W
Report Text: KBAC 291235Z AUTO 35012G21KT 10SM UP OVC014 M05/M05 A3031 RMK AO2
Loading
Personal Weather Stations






























Interactive Weather Map New forecast layout! Learn more

10-Day Weather Forecast

Advertisements
Track Severe Weather on mobile